Terminal Aerodrome Forecast
Issued by NWS

Home | Current Version | Previous Version | Text Only | Print | Product List | Glossary On
Versions: 1 2 3 4 5 6 7 8 9 10 11 12 13 14 15 16 17 18 19 20 21 22 23
000
FTUS46 KPDT 271700
TAFPSC
TAF
KPSC 271737Z 2718/2818 14003KT 3SM BR OVC004
     FM272000 32003KT 5SM BR BKN007 OVC012
     FM280000 24005KT 6SM BR BKN015 OVC100
     FM280300 26006KT P6SM SCT015 BKN035 OVC060
     FM281000 30004KT 5SM BR BKN015 OVC050
     FM281500 VRB04KT 3SM BR BKN007 OVC050=

USA.gov is the U.S. government's official web portal to all federal, state and local government web resources and services.